Terminal Aerodrome Forecast
Issued by NWS

Home | Current Version | Previous Version | Text Only | Print | Product List | Glossary On
Versions: 1 2 3 4 5 6 7 8 9 10 11 12 13 14 15 16 17 18
000
FTUS43 KMQT 261120
TAFCMX
TAF
KCMX 261120Z 2612/2712 34009KT P6SM -SHRA FEW002 OVC025
     FM261500 31008KT P6SM VCSH BKN030
     FM261600 30009KT P6SM VCSH BKN070
     FM261700 29010KT P6SM SCT110
     FM270300 27006KT P6SM SCT150=

USA.gov is the U.S. government's official web portal to all federal, state and local government web resources and services.